首页
METAR-TAF:

METAR-TAF

机场 :

史密斯堡, 西北特區, 加拿大

纬度: 60-01N, 经度: 111-57W, 海拔: 203米

当前天气观测

该预报发布于10小时和34分钟前的15:00 UTC
风速4节,风向北转西北
温度 -6°C
湿度 93%
气压 1016 hPa
能見度: 4.8公里
散云层高于1800英尺
阴天层高于3600英尺
小雪

METAR: CYSM 291500Z 33004KT 3SM -SN SCT018 OVC036 M06/M07 A3000 RMK SC5SC3 SLP176

时间: 19:34 (01:34 UTC)

预报

该预报发布于13小时和54分钟前的11:40 UTC
预报有效从29日的 12点(UTC)到 29日的 24点(UTC)
风速5节,风向西
能見度: 10公里
散云层高于1500英尺
阴天层高于6000英尺
短暂存在
从 29日的 12点(UTC)到 29日的 19点(UTC)
能見度: 8.0公里
散云层高于600英尺
阴天层高于1500英尺
小雪
从 29日的 1900点(UTC)
风速8节,风向西
能見度: 10公里
散云层高于1500英尺
短暂存在
从 29日的 19点(UTC)到 29日的 24点(UTC)
能見度: 8.0公里
多云层高于1500英尺
小雪

TAF: CYSM 291140Z 2912/2924 28005KT P6SM SCT015 OVC060 TEMPO 2912/2919 5SM -SN SCT006 OVC015 FM291900 28008KT P6SM SCT015 TEMPO 2919/2924 5SM -SN BKN015 RMK NXT FCST BY 291800Z

超过4000个机场的气象观测和天气预报(METAR&TAF报告)。

可查询的气象台以黄色和红色小点在地图上表示。

将鼠标移到小点上方,可查看气象台名称。

然后点击查看天气观测和预报。

如需切换地图:点击带黑十字的绿色按钮放大地图;点击带横线的绿色按钮缩小地图;或者点击绿色箭头查看邻近地区的地图。


METAR-TAF: